Flight Track Log - Related Links

Times and Time Zones

All times are in EDT time to prevent confusion due to time zone crossing. See the BMJ59 flight status page for this flight to view local times or setup timezone preferences in your user account.

Time Position Orientation Groundspeed Altitude Reporting Facility
EDT Latitude Longitude Course Direction KTS MPH feet Rate Location/Type
Fri 09:36:52 AM 46.2894 -94.0089 155° Southeast 193 222 5,000  Level Minneapolis Center
Fri 09:38:00 AM 46.2345 -93.9774 156° South  Level Estimated
Fri 09:39:57 AM 46.1264 -93.8992 157° South 206 237 5,000  Level Minneapolis Center
Fri 09:41:00 AM 46.0753 -93.8707 159° South  Level Estimated
Fri 09:45:00 AM 45.8872 -93.8058 157° South  Level FlightAware Approximate
Fri 09:48:00 AM 45.7346 -93.6824 159° South  Level Estimated
Fri 09:49:00 AM 45.6859 -93.6557 159° South  Level Estimated
Fri 09:50:00 AM 45.6372 -93.6290 159° South  Level Estimated
Fri 09:51:00 AM 45.5885 -93.6024 159° South  Level Estimated
Fri 09:52:00 AM 45.5398 -93.5759 159° South  Level Estimated
Fri 09:53:00 AM 45.4911 -93.5493 159° South  Level Estimated
Fri 09:54:00 AM 45.4423 -93.5228 159° South  Level Estimated
Fri 09:55:00 AM 45.3936 -93.4964 159° South  Level Estimated
Fri 09:56:00 AM 45.3449 -93.4700 159° South  Level Estimated
Fri 09:57:00 AM 45.2961 -93.4437 159° South  Level Estimated
Fri 09:58:00 AM 45.2474 -93.4174 159° South  Level Estimated
Fri 09:59:00 AM 45.1986 -93.3911 159° South  Level Estimated
Fri 10:00:00 AM 45.1498 -93.3649 159° South  Level Estimated
Fri 10:01:00 AM 45.1011 -93.3387 159° South  Level Estimated
Fri 10:02:00 AM 45.0523 -93.3126 159° South  Level Estimated
Fri 10:03:00 AM 45.0035 -93.2865 159° South  Level Estimated
Fri 10:04:00 AM 44.9547 -93.2605 159° South  Level Estimated
Fri 10:05:00 AM 44.9059 -93.2345 159° South  Level Estimated
Fri 10:06:00 AM 44.8820 -93.2218 159° South  Level Estimated
Fri 10:07:00 AM 44.8820 -93.2218 35° Northeast  Level Estimated
Fri 10:08:00 AM 44.8820 -93.2218 35° Northeast  Level Estimated
Fri 10:09:00 AM 44.8820 -93.2218 35° Northeast  Level Estimated
Fri 10:10:00 AM 44.8820 -93.2218 35° Northeast  Level Estimated
Fri 10:11:00 AM 44.8820 -93.2218 35° Northeast  Level Estimated
Fri 10:12:00 AM 44.8820 -93.2218 35° Northeast  Level Estimated
Fri 10:13:00 AM 44.8820 -93.2218 35° Northeast  Level Estimated
Fri 10:14:00 AM 44.8820 -93.2218 35° Northeast  Level Estimated
Fri 10:15:00 AM 44.8820 -93.2218 35° Northeast  Level Estimated
Fri 10:16:00 AM 44.8820 -93.2218 35° Northeast  Level Estimated
Fri 10:17:00 AM 44.8820 -93.2218 35° Northeast  Level Estimated
Fri 10:18:00 AM 44.8820 -93.2218 35° Northeast  Level Estimated
Fri 10:19:00 AM 44.8820 -93.2218 35° Northeast  Level Estimated
Fri 10:20:00 AM 44.8820 -93.2218 35° Northeast  Level Estimated
Fri 10:21:00 AM 44.8820 -93.2218 35° Northeast  Level Estimated
Fri 10:22:00 AM 44.8820 -93.2218 35° Northeast  Level Estimated
Fri 10:23:00 AM 44.8820 -93.2218 35° Northeast  Level Estimated
Fri 10:24:00 AM 44.8820 -93.2218 35° Northeast  Level Estimated

Login

Don't have an account? Register now (free) for customized features, flight alerts, and more!